Time;durP1;ratioP1;P1;durP2;ratioP2;P2;SDS_P1;SDS_P2;PMS_P1;PMS_P2;Temp;Humidity;BMP_temperature;BMP_pressure;BME280_temperature;BME280_humidity;BME280_pressure;Samples;Min_cycle;Max_cycle;Signal;HPM_P1;HPM_P2
2022/11/12 00:00:42;;;;;;;;;;;;;;;20.86;56.41;102591.09;7263502;19;153318;-54
2022/11/12 00:03:09;;;;;;;;;;;;;;;20.90;56.17;102588.56;7272639;19;154021;-54
2022/11/12 00:05:36;;;;;;;;;;;;;;;20.94;56.55;102589.75;7261672;19;152755;-54
2022/11/12 00:08:03;;;;;;;;;;;;;;;20.97;56.02;102577.97;7263377;19;153347;-54
2022/11/12 00:10:31;;;;;;;;;;;;;;;21.02;56.19;102583.63;7265645;19;153994;-54
2022/11/12 00:12:58;;;;;;;;;;;;;;;21.04;56.11;102584.16;7265157;19;154566;-54
2022/11/12 00:15:25;;;;;;;;;;;;;;;21.09;56.60;102584.19;7260493;19;154017;-54
2022/11/12 00:17:52;;;;;;;;;;;;;;;21.13;56.55;102568.50;7261894;19;153310;-54
2022/11/12 00:20:20;;;;;;;;;;;;;;;21.16;56.78;102559.56;7264862;19;153473;-54
2022/11/12 00:22:46;;;;;;;;;;;;;;;21.17;57.15;102561.22;7265174;19;153614;-54
2022/11/12 00:25:14;;;;;;;;;;;;;;;21.20;57.46;102564.34;7269215;19;151903;-54
2022/11/12 00:27:41;;;;;;;;;;;;;;;21.22;57.26;102561.25;7260494;19;153869;-54
2022/11/12 00:30:08;;;;;;;;;;;;;;;21.26;57.55;102568.00;7260189;19;153405;-54
2022/11/12 00:32:36;;;;;;;;;;;;;;;21.26;57.58;102559.59;7264985;19;152047;-54
2022/11/12 00:35:03;;;;;;;;;;;;;;;21.30;57.46;102566.38;7265627;19;153077;-54
2022/11/12 00:37:32;;;;;;;;;;;;;;;21.32;57.25;102561.31;7259224;19;154195;-54
2022/11/12 00:39:59;;;;;;;;;;;;;;;21.34;57.64;102555.41;7264487;19;152657;-54
2022/11/12 00:42:26;;;;;;;;;;;;;;;21.36;57.39;102558.78;7262957;19;154048;-53
2022/11/12 00:44:52;;;;;;;;;;;;;;;21.37;57.72;102550.09;7268529;19;154876;-54
2022/11/12 00:47:19;;;;;;;;;;;;;;;21.39;57.52;102556.28;7261480;19;153410;-54
2022/11/12 00:49:46;;;;;;;;;;;;;;;21.39;57.44;102547.84;7262187;19;153865;-54
2022/11/12 00:52:13;;;;;;;;;;;;;;;21.42;57.51;102547.28;7263344;19;153518;-54
2022/11/12 00:54:40;;;;;;;;;;;;;;;21.43;57.18;102545.34;7263206;19;153787;-54
2022/11/12 00:57:07;;;;;;;;;;;;;;;21.43;57.21;102543.38;7262416;19;153272;-54
2022/11/12 00:59:34;;;;;;;;;;;;;;;21.46;57.06;102539.16;7259963;19;152860;-54
2022/11/12 01:02:01;;;;;;;;;;;;;;;21.46;57.42;102540.00;7262589;19;152643;-54
2022/11/12 01:04:28;;;;;;;;;;;;;;;21.47;57.22;102538.03;7261276;19;153724;-54
2022/11/12 01:06:54;;;;;;;;;;;;;;;21.48;57.16;102531.28;7269224;19;153033;-54
2022/11/12 01:09:21;;;;;;;;;;;;;;;21.49;57.28;102532.97;7257839;19;152667;-54
2022/11/12 01:11:48;;;;;;;;;;;;;;;21.50;57.41;102531.84;7264134;19;152386;-54
2022/11/12 01:14:16;;;;;;;;;;;;;;;21.51;57.63;102531.56;7261931;19;152975;-54
2022/11/12 01:16:43;;;;;;;;;;;;;;;21.51;57.43;102531.56;7258966;19;153964;-54
2022/11/12 01:19:11;;;;;;;;;;;;;;;21.50;57.60;102532.69;7260732;19;153550;-54
2022/11/12 01:21:39;;;;;;;;;;;;;;;21.50;57.54;102532.69;7259207;19;152982;-54
2022/11/12 01:24:06;;;;;;;;;;;;;;;21.53;57.84;102528.50;7259642;19;153678;-54
2022/11/12 01:26:33;;;;;;;;;;;;;;;21.52;57.97;102521.19;7259801;19;153758;-54
2022/11/12 01:28:59;;;;;;;;;;;;;;;21.52;57.79;102518.38;7267744;19;153407;-54
2022/11/12 01:31:28;;;;;;;;;;;;;;;21.52;58.16;102522.03;7258468;19;152862;-54
2022/11/12 01:33:56;;;;;;;;;;;;;;;21.53;58.05;102518.06;7263137;19;153221;-54
2022/11/12 01:36:23;;;;;;;;;;;;;;;21.54;58.15;102524.53;7257801;19;152961;-53
2022/11/12 01:38:51;;;;;;;;;;;;;;;21.55;58.28;102526.25;7261077;19;151898;-53
2022/11/12 01:41:19;;;;;;;;;;;;;;;21.54;58.41;102531.00;7261907;19;153075;-54
2022/11/12 01:43:46;;;;;;;;;;;;;;;21.55;58.11;102532.72;7260295;19;154090;-56
2022/11/12 01:46:13;;;;;;;;;;;;;;;21.56;58.09;102533.56;7257950;19;152420;-53
2022/11/12 01:48:46;;;;;;;;;;;;;;;21.56;58.56;102527.94;7261913;19;152756;-54
2022/11/12 01:51:13;;;;;;;;;;;;;;;21.54;58.82;102536.63;7264651;19;155197;-54
2022/11/12 01:53:43;;;;;;;;;;;;;;;21.53;59.07;102542.56;7261648;19;153347;-53
2022/11/12 01:56:10;;;;;;;;;;;;;;;21.53;59.02;102532.13;7259559;19;153424;-53
2022/11/12 01:58:39;;;;;;;;;;;;;;;21.54;58.99;102532.97;7261155;19;153240;-53
2022/11/12 02:01:05;;;;;;;;;;;;;;;21.51;58.91;102537.19;7258542;19;153341;-56
2022/11/12 02:03:32;;;;;;;;;;;;;;;21.50;59.17;102534.66;7257061;19;153973;-53
2022/11/12 02:06:01;;;;;;;;;;;;;;;21.50;59.70;102537.47;7257872;19;152458;-55
2022/11/12 02:08:29;;;;;;;;;;;;;;;21.49;59.44;102535.78;7261299;19;151993;-55
2022/11/12 02:10:56;;;;;;;;;;;;;;;21.48;59.39;102532.13;7260042;19;154221;-55
2022/11/12 02:16:01;;;;;;;;;;;;;;;21.49;59.34;102532.97;7256844;19;153944;-55
2022/11/12 02:18:28;;;;;;;;;;;;;;;21.46;59.75;102541.97;7258891;19;152556;-55
2022/11/12 02:20:56;;;;;;;;;;;;;;;21.48;59.67;102531.28;7257021;19;151879;-55
2022/11/12 02:23:23;;;;;;;;;;;;;;;21.48;59.91;102534.09;7259030;19;154029;-54
2022/11/12 02:25:50;;;;;;;;;;;;;;;21.49;59.79;102530.16;7258221;19;154703;-54
2022/11/12 02:28:18;;;;;;;;;;;;;;;21.48;60.32;102529.34;7255162;19;153815;-55
2022/11/12 02:30:46;;;;;;;;;;;;;;;21.49;59.75;102528.19;7258747;19;153677;-56
2022/11/12 02:33:13;;;;;;;;;;;;;;;21.52;59.65;102535.25;7268526;19;153198;-54
2022/11/12 02:35:40;;;;;;;;;;;;;;;21.50;60.33;102534.66;7257770;19;154502;-56
2022/11/12 02:38:07;;;;;;;;;;;;;;;21.52;59.52;102532.44;7257803;19;153155;-54
2022/11/12 02:40:34;;;;;;;;;;;;;;;21.51;59.59;102534.38;7259918;19;154302;-56
2022/11/12 02:43:01;;;;;;;;;;;;;;;21.52;60.00;102536.09;7255774;19;153868;-55
2022/11/12 02:45:29;;;;;;;;;;;;;;;21.53;59.83;102522.88;7256589;19;151744;-55
2022/11/12 02:47:56;;;;;;;;;;;;;;;21.52;59.84;102518.38;7259112;19;153241;-55
2022/11/12 02:50:23;;;;;;;;;;;;;;;21.53;59.67;102528.50;7256398;19;153196;-55
2022/11/12 02:52:50;;;;;;;;;;;;;;;21.53;59.73;102517.25;7259443;19;152507;-55
2022/11/12 02:55:17;;;;;;;;;;;;;;;21.52;60.10;102527.66;7266208;19;153319;-56
2022/11/12 02:57:44;;;;;;;;;;;;;;;21.51;60.23;102523.13;7256560;19;152373;-55
2022/11/12 03:00:11;;;;;;;;;;;;;;;21.52;60.35;102524.00;7257163;19;152622;-55
2022/11/12 03:02:41;;;;;;;;;;;;;;;21.51;60.17;102520.31;7256699;19;154298;-55
2022/11/12 03:05:09;;;;;;;;;;;;;;;21.51;60.53;102523.13;7259198;19;153926;-55
2022/11/12 03:07:37;;;;;;;;;;;;;;;21.49;60.49;102516.94;7255072;19;153298;-55
2022/11/12 03:10:04;;;;;;;;;;;;;;;21.49;60.20;102516.94;7259133;19;154185;-55
2022/11/12 03:12:31;;;;;;;;;;;;;;;21.49;60.30;102514.13;7257540;19;151982;-55
2022/11/12 03:14:58;;;;;;;;;;;;;;;21.49;60.23;102511.31;7257192;19;154090;-54
2022/11/12 03:17:25;;;;;;;;;;;;;;;21.49;60.38;102507.66;7266308;19;153308;-55
2022/11/12 03:19:52;;;;;;;;;;;;;;;21.48;60.07;102506.84;7257850;19;153374;-55
2022/11/12 03:22:19;;;;;;;;;;;;;;;21.47;60.20;102495.84;7255725;19;154559;-54
2022/11/12 03:24:45;;;;;;;;;;;;;;;21.45;60.04;102498.06;7259599;19;152753;-55
2022/11/12 03:27:12;;;;;;;;;;;;;;;21.45;60.06;102492.44;7258877;19;154018;-55
2022/11/12 03:29:39;;;;;;;;;;;;;;;21.44;60.11;102496.41;7255371;19;153212;-55
2022/11/12 03:32:06;;;;;;;;;;;;;;;21.42;60.41;102488.25;7259640;19;153222;-55
2022/11/12 03:34:33;;;;;;;;;;;;;;;21.42;60.22;102484.59;7257727;19;154455;-54
2022/11/12 03:37:00;;;;;;;;;;;;;;;21.41;60.45;102480.06;7256399;19;153413;-56
2022/11/12 03:39:27;;;;;;;;;;;;;;;21.40;60.10;102479.22;7266495;19;152691;-54
2022/11/12 03:41:54;;;;;;;;;;;;;;;21.40;60.55;102481.19;7258358;19;154374;-56
2022/11/12 03:44:20;;;;;;;;;;;;;;;21.39;60.63;102482.34;7257441;19;153388;-56
2022/11/12 03:46:47;;;;;;;;;;;;;;;21.40;60.14;102486.81;7232795;19;153686;-54
2022/11/12 03:49:14;;;;;;;;;;;;;;;21.36;60.42;102480.91;7248575;19;155227;-55
2022/11/12 03:51:41;;;;;;;;;;;;;;;21.37;60.19;102474.16;7248867;19;152805;-55
2022/11/12 03:54:08;;;;;;;;;;;;;;;21.35;60.41;102476.41;7251362;19;153019;-55
2022/11/12 03:56:34;;;;;;;;;;;;;;;21.35;60.60;102479.22;7252064;19;153629;-55
2022/11/12 03:59:01;;;;;;;;;;;;;;;21.34;60.76;102480.34;7257260;19;153633;-54
2022/11/12 04:01:28;;;;;;;;;;;;;;;21.35;60.63;102484.84;7260269;19;153498;-54
2022/11/12 04:03:55;;;;;;;;;;;;;;;21.33;60.60;102481.47;7258211;19;152586;-55
2022/11/12 04:08:58;;;;;;;;;;;;;;;21.31;60.83;102466.84;7257089;19;152989;-54
2022/11/12 04:11:25;;;;;;;;;;;;;;;21.33;60.31;102472.19;7260395;19;153069;-55
2022/11/12 04:13:51;;;;;;;;;;;;;;;21.30;60.44;102474.41;7257933;19;153646;-56
2022/11/12 04:26:21;;;;;;;;;;;;;;;21.26;60.99;102476.09;7262618;19;153212;-55
2022/11/12 04:26:59;;;;;;;;;;;;;;;21.27;60.92;102469.34;7255082;19;153488;-53
2022/11/12 04:32:03;;;;;;;;;;;;;;;21.24;60.68;102471.88;7253927;19;154010;-54
2022/11/12 04:34:29;;;;;;;;;;;;;;;21.24;60.85;102466.25;7254222;19;152137;-54
2022/11/12 04:36:56;;;;;;;;;;;;;;;21.22;61.06;102462.88;7254414;19;153046;-54
2022/11/12 04:39:23;;;;;;;;;;;;;;;21.22;61.01;102465.69;7252827;19;153212;-58
2022/11/12 04:47:04;;;;;;;;;;;;;;;21.20;60.93;102460.34;7262502;19;153504;-54
2022/11/12 04:49:30;;;;;;;;;;;;;;;21.20;60.87;102459.50;7263135;19;153233;-54
2022/11/12 04:54:34;;;;;;;;;;;;;;;21.19;60.81;102463.44;7262668;19;152518;-54
2022/11/12 04:57:01;;;;;;;;;;;;;;;21.17;60.61;102465.66;7262441;19;154542;-54
2022/11/12 04:59:28;;;;;;;;;;;;;;;21.16;60.98;102470.47;7246107;19;153195;-54
2022/11/12 05:01:55;;;;;;;;;;;;;;;21.14;60.93;102469.03;7262873;19;154823;-53
2022/11/12 05:04:22;;;;;;;;;;;;;;;21.14;60.78;102461.44;7262365;19;154347;-54
2022/11/12 05:06:50;;;;;;;;;;;;;;;21.15;60.78;102459.47;7266077;19;153293;-54
2022/11/12 05:09:17;;;;;;;;;;;;;;;21.14;60.79;102461.44;7261343;19;154245;-54
2022/11/12 05:11:44;;;;;;;;;;;;;;;21.15;61.06;102463.13;7263897;19;153017;-54
2022/11/12 05:14:11;;;;;;;;;;;;;;;21.15;61.20;102463.13;7258490;19;152908;-54
2022/11/12 05:16:38;;;;;;;;;;;;;;;21.14;61.15;102463.41;7258343;19;152863;-54
2022/11/12 05:19:05;;;;;;;;;;;;;;;21.12;60.76;102460.81;7262161;19;152856;-54
2022/11/12 05:24:09;;;;;;;;;;;;;;;21.10;61.24;102479.94;7259055;19;154802;-54
2022/11/12 05:26:56;;;;;;;;;;;;;;;21.07;61.33;102480.50;7262790;19;152117;-54
2022/11/12 05:29:23;;;;;;;;;;;;;;;21.07;60.96;102485.28;7267844;19;152720;-54
2022/11/12 05:31:50;;;;;;;;;;;;;;;21.07;61.44;102486.13;7262240;19;152274;-54
2022/11/12 05:34:16;;;;;;;;;;;;;;;21.06;61.38;102486.41;7261785;19;153934;-54
2022/11/12 05:36:48;;;;;;;;;;;;;;;21.05;61.38;102479.94;7259558;19;155094;-54
2022/11/12 05:39:15;;;;;;;;;;;;;;;21.03;61.46;102473.72;7259894;19;152745;-54
2022/11/12 05:41:42;;;;;;;;;;;;;;;21.03;61.29;102481.34;7263395;19;153503;-54
2022/11/12 05:44:28;;;;;;;;;;;;;;;21.03;61.39;102478.53;7256942;19;157460;-54
2022/11/12 05:46:55;;;;;;;;;;;;;;;21.02;61.21;102476.81;7260531;19;153020;-54
2022/11/12 05:49:22;;;;;;;;;;;;;;;21.00;61.34;102468.66;7264235;19;153449;-54
2022/11/12 05:51:50;;;;;;;;;;;;;;;21.01;61.50;102475.13;7264034;19;153068;-54
2022/11/12 05:54:17;;;;;;;;;;;;;;;21.01;61.59;102472.31;7261551;19;153093;-54
2022/11/12 05:56:44;;;;;;;;;;;;;;;21.00;61.11;102473.44;7258030;19;154364;-54
2022/11/12 05:59:12;;;;;;;;;;;;;;;20.99;61.22;102472.59;7261180;19;152354;-54
2022/11/12 06:01:43;;;;;;;;;;;;;;;20.98;61.37;102478.50;7260255;19;153701;-53
2022/11/12 06:04:10;;;;;;;;;;;;;;;20.97;61.45;102480.47;7260436;19;155396;-54
2022/11/12 06:06:37;;;;;;;;;;;;;;;20.95;61.39;102477.06;7259590;19;152810;-54
2022/11/12 06:09:06;;;;;;;;;;;;;;;20.95;61.34;102479.03;7258135;19;154317;-54
2022/11/12 06:11:33;;;;;;;;;;;;;;;20.93;61.53;102484.94;7255882;19;153707;-54
2022/11/12 06:14:00;;;;;;;;;;;;;;;20.92;61.34;102471.16;7265957;19;154127;-54
2022/11/12 06:16:27;;;;;;;;;;;;;;;20.91;61.42;102487.16;7258176;19;152712;-54
2022/11/12 06:18:54;;;;;;;;;;;;;;;20.90;61.48;102487.44;7259198;19;153506;-54
2022/11/12 06:21:21;;;;;;;;;;;;;;;20.90;61.74;102467.75;7260845;19;153528;-54
2022/11/12 06:23:50;;;;;;;;;;;;;;;20.89;61.73;102468.91;7259465;19;153225;-54
2022/11/12 06:26:18;;;;;;;;;;;;;;;20.86;61.34;102465.50;7261085;19;154352;-54
2022/11/12 06:28:45;;;;;;;;;;;;;;;20.85;61.57;102465.78;7256783;19;153755;-54
2022/11/12 06:31:13;;;;;;;;;;;;;;;20.85;61.57;102472.25;7257842;19;154284;-54
2022/11/12 06:33:39;;;;;;;;;;;;;;;20.83;61.88;102466.06;7258854;19;153068;-54
2022/11/12 06:36:07;;;;;;;;;;;;;;;20.84;61.65;102472.53;7266690;19;153408;-54
2022/11/12 06:38:35;;;;;;;;;;;;;;;20.82;61.85;102484.03;7258406;19;153241;-54
2022/11/12 06:41:03;;;;;;;;;;;;;;;20.81;61.53;102476.72;7260626;19;153250;-54
2022/11/12 06:43:31;;;;;;;;;;;;;;;20.82;61.80;102488.81;7255461;19;154185;-54
2022/11/12 06:45:59;;;;;;;;;;;;;;;20.81;61.61;102498.34;7258260;19;152443;-54
2022/11/12 06:48:26;;;;;;;;;;;;;;;20.80;61.64;102503.13;7259060;19;153937;-54
2022/11/12 06:50:54;;;;;;;;;;;;;;;20.79;62.09;102493.03;7261146;19;154346;-54
2022/11/12 06:53:21;;;;;;;;;;;;;;;20.79;61.70;102490.22;7263044;19;153162;-54
2022/11/12 06:55:48;;;;;;;;;;;;;;;20.79;61.61;102497.78;7265765;19;153477;-54
2022/11/12 06:58:14;;;;;;;;;;;;;;;20.79;62.00;102492.16;7259175;19;154044;-54
2022/11/12 07:00:41;;;;;;;;;;;;;;;20.77;62.20;102492.44;7259735;19;153331;-54
2022/11/12 07:03:09;;;;;;;;;;;;;;;20.78;62.01;102493.28;7257375;19;152486;-54
2022/11/12 07:05:37;;;;;;;;;;;;;;;20.77;61.80;102488.78;7258787;19;152290;-54
2022/11/12 07:08:05;;;;;;;;;;;;;;;20.77;62.02;102488.78;7255091;19;152970;-54
2022/11/12 07:10:32;;;;;;;;;;;;;;;20.76;62.23;102495.50;7255107;19;153832;-54
2022/11/12 07:12:58;;;;;;;;;;;;;;;20.75;61.91;102489.06;7258198;19;153856;-54
2022/11/12 07:15:25;;;;;;;;;;;;;;;20.76;62.09;102481.47;7256736;19;153102;-54
2022/11/12 07:17:52;;;;;;;;;;;;;;;20.76;62.26;102487.94;7265600;19;153584;-54
2022/11/12 07:20:19;;;;;;;;;;;;;;;20.74;61.98;102487.38;7258932;19;153477;-54
2022/11/12 07:22:45;;;;;;;;;;;;;;;20.74;62.02;102478.94;7258614;19;154237;-54
2022/11/12 07:25:12;;;;;;;;;;;;;;;20.74;61.96;102476.13;7262470;19;152211;-54
2022/11/12 07:27:39;;;;;;;;;;;;;;;20.74;61.97;102487.38;7252505;19;153094;-54
2022/11/12 07:30:07;;;;;;;;;;;;;;;20.73;62.33;102485.66;7257831;19;154089;-54
2022/11/12 07:32:34;;;;;;;;;;;;;;;20.73;62.31;102482.88;7261263;19;152785;-54
2022/11/12 07:35:08;;;;;;;;;;;;;;;20.72;62.49;102478.34;7257999;19;155050;-54
2022/11/12 07:37:35;;;;;;;;;;;;;;;20.72;62.37;102486.78;7258882;19;154855;-54
2022/11/12 07:40:03;;;;;;;;;;;;;;;20.70;62.34;102486.22;7269792;19;153167;-54
2022/11/12 07:42:31;;;;;;;;;;;;;;;20.73;62.01;102490.44;7257588;19;153340;-54
2022/11/12 07:44:58;;;;;;;;;;;;;;;20.72;62.34;102495.22;7257449;19;152632;-54
2022/11/12 07:47:26;;;;;;;;;;;;;;;20.75;61.75;102491.03;7258604;19;153615;-54
2022/11/12 07:49:52;;;;;;;;;;;;;;;20.76;61.95;102499.16;7256269;19;153312;-54
2022/11/12 07:52:19;;;;;;;;;;;;;;;20.79;63.03;102507.06;7259022;19;152688;-54
2022/11/12 07:54:46;;;;;;;;;;;;;;;20.83;63.36;102502.59;7261271;19;153236;-54
2022/11/12 07:57:13;;;;;;;;;;;;;;;20.86;63.54;102513.28;7258116;19;153571;-54
2022/11/12 07:59:40;;;;;;;;;;;;;;;20.90;63.92;102518.34;7258065;19;152764;-54
2022/11/12 08:02:11;;;;;;;;;;;;;;;20.94;63.96;102513.88;7265952;19;155100;-54
2022/11/12 08:04:38;;;;;;;;;;;;;;;20.99;64.13;102527.94;7257517;19;152008;-54
2022/11/12 08:07:05;;;;;;;;;;;;;;;21.02;64.61;102530.22;7254053;19;152712;-54
2022/11/12 08:09:32;;;;;;;;;;;;;;;21.06;64.59;102522.94;7254568;19;154594;-55
2022/11/12 08:11:59;;;;;;;;;;;;;;;21.11;64.58;102532.25;7258831;19;153154;-54
2022/11/12 08:14:26;;;;;;;;;;;;;;;21.16;64.76;102531.44;7258604;19;153608;-54
2022/11/12 08:16:53;;;;;;;;;;;;;;;21.21;64.81;102539.91;7255713;19;155003;-54
2022/11/12 08:19:20;;;;;;;;;;;;;;;21.25;64.42;102529.81;7261891;19;152743;-54
2022/11/12 08:21:47;;;;;;;;;;;;;;;21.29;64.42;102526.16;7263977;19;155056;-55
2022/11/12 08:24:14;;;;;;;;;;;;;;;21.34;64.22;102536.59;7270677;19;153916;-54
2022/11/12 08:26:40;;;;;;;;;;;;;;;21.38;64.29;102543.34;7263941;19;153326;-54
2022/11/12 08:29:07;;;;;;;;;;;;;;;21.43;64.26;102542.53;7262519;19;154307;-54
2022/11/12 08:31:34;;;;;;;;;;;;;;;21.46;64.42;102530.72;7258825;19;152022;-54
2022/11/12 08:34:10;;;;;;;;;;;;;;;21.49;63.98;102538.59;7265504;19;154785;-54
2022/11/12 08:36:39;;;;;;;;;;;;;;;21.52;64.14;102533.28;7259307;19;154771;-54
2022/11/12 08:39:06;;;;;;;;;;;;;;;21.56;64.11;102537.22;7263318;19;152481;-54
2022/11/12 08:41:33;;;;;;;;;;;;;;;21.61;63.92;102542.00;7266426;19;153659;-54
2022/11/12 08:44:00;;;;;;;;;;;;;;;21.63;63.79;102549.03;7262050;19;153346;-54
2022/11/12 08:46:34;;;;;;;;;;;;;;;21.67;63.38;102549.31;7271043;19;153708;-54
2022/11/12 08:49:01;;;;;;;;;;;;;;;21.68;63.56;102543.44;7262235;19;153597;-54
2022/11/12 08:51:27;;;;;;;;;;;;;;;21.71;63.60;102553.31;7266777;19;153856;-54
2022/11/12 08:53:55;;;;;;;;;;;;;;;21.73;63.20;102551.03;7262320;19;153871;-56
2022/11/12 08:56:22;;;;;;;;;;;;;;;21.74;62.93;102544.31;7260688;19;153719;-54
2022/11/12 08:58:49;;;;;;;;;;;;;;;21.77;63.08;102551.31;7265602;19;152217;-54
2022/11/12 09:01:15;;;;;;;;;;;;;;;21.78;62.58;102553.03;7263306;19;154106;-54
2022/11/12 09:03:43;;;;;;;;;;;;;;;21.81;62.47;102558.94;7264684;19;154770;-54
2022/11/12 09:06:10;;;;;;;;;;;;;;;21.81;62.33;102558.09;7271139;19;153353;-54
2022/11/12 09:08:38;;;;;;;;;;;;;;;21.83;62.07;102561.47;7263028;19;154044;-54
2022/11/12 09:11:05;;;;;;;;;;;;;;;21.84;62.04;102564.03;7262359;19;152727;-54
2022/11/12 09:13:33;;;;;;;;;;;;;;;21.86;62.18;102558.09;7261609;19;152040;-54
2022/11/12 09:16:01;;;;;;;;;;;;;;;21.87;61.71;102559.78;7262318;19;152637;-54
2022/11/12 09:18:28;;;;;;;;;;;;;;;21.89;61.84;102571.63;7263755;19;152955;-54
2022/11/12 09:21:05;;;;;;;;;;;;;;;21.90;61.83;102573.28;7258769;19;152610;-54
2022/11/12 09:23:33;;;;;;;;;;;;;;;21.91;61.83;102563.75;7260325;19;153885;-54
2022/11/12 09:26:00;;;;;;;;;;;;;;;21.93;61.51;102575.59;7255551;19;153047;-54
2022/11/12 09:28:27;;;;;;;;;;;;;;;21.92;61.80;102585.97;7263290;19;154612;-55
2022/11/12 09:30:54;;;;;;;;;;;;;;;21.93;61.53;102589.69;7256881;19;151902;-54
2022/11/12 09:33:24;;;;;;;;;;;;;;;21.93;61.49;102584.91;7262433;19;152816;-54
2022/11/12 09:35:52;;;;;;;;;;;;;;;21.87;60.95;102579.50;7262339;19;153298;-54
2022/11/12 09:38:19;;;;;;;;;;;;;;;21.72;57.59;102589.59;7261193;19;153318;-54
2022/11/12 09:40:54;;;;;;;;;;;;;;;21.74;57.11;102583.69;7257120;19;153477;-54
2022/11/12 09:43:26;;;;;;;;;;;;;;;21.59;56.44;102578.00;7258802;19;154243;-54
2022/11/12 09:45:56;;;;;;;;;;;;;;;21.55;56.67;102577.72;7260307;19;153433;-58
2022/11/12 09:48:47;;;;;;;;;;;;;;;21.59;57.22;102580.81;7259846;19;155050;-53
2022/11/12 09:51:15;;;;;;;;;;;;;;;21.63;57.74;102576.31;7263913;19;154012;-54
2022/11/12 09:53:50;;;;;;;;;;;;;;;21.63;57.88;102577.16;7262410;19;153341;-54
2022/11/12 09:56:19;;;;;;;;;;;;;;;21.65;58.11;102580.56;7260468;19;152857;-54
2022/11/12 09:58:46;;;;;;;;;;;;;;;21.67;57.80;102575.50;7259161;19;153217;-54
2022/11/12 10:01:16;;;;;;;;;;;;;;;21.69;58.13;102573.25;7259434;19;153674;-54
2022/11/12 10:03:53;;;;;;;;;;;;;;;21.73;58.15;102574.41;7260400;19;155151;-54
2022/11/12 10:06:22;;;;;;;;;;;;;;;21.77;58.43;102574.69;7258565;19;152476;-53
2022/11/12 10:08:57;;;;;;;;;;;;;;;21.80;58.71;102565.72;7260307;19;153713;-55
2022/11/12 10:11:25;;;;;;;;;;;;;;;21.82;58.39;102557.81;7258705;19;153834;-55
2022/11/12 10:13:59;;;;;;;;;;;;;;;21.84;58.24;102552.78;7268283;19;153524;-55
2022/11/12 10:16:42;;;;;;;;;;;;;;;21.87;58.65;102545.72;7259580;19;155653;-54
2022/11/12 10:19:18;;;;;;;;;;;;;;;21.88;58.39;102547.41;7262335;19;152537;-54
2022/11/12 10:21:53;;;;;;;;;;;;;;;21.91;58.25;102546.84;7259470;19;154047;-55
2022/11/12 10:24:23;;;;;;;;;;;;;;;21.91;58.33;102555.28;7258928;19;153512;-54
2022/11/12 10:26:51;;;;;;;;;;;;;;;21.93;57.92;102558.72;7261492;19;152935;-55
2022/11/12 10:29:27;;;;;;;;;;;;;;;21.93;58.26;102559.56;7259048;19;153849;-54
2022/11/12 10:31:54;;;;;;;;;;;;;;;21.94;58.03;102549.97;7259089;19;153932;-54
2022/11/12 10:34:22;;;;;;;;;;;;;;;21.94;57.98;102544.34;7259556;19;151847;-55
2022/11/12 10:36:52;;;;;;;;;;;;;;;21.95;58.15;102519.88;7265141;19;153822;-54
2022/11/12 10:39:30;;;;;;;;;;;;;;;21.96;58.13;102519.59;7258063;19;152512;-54
2022/11/12 10:42:02;;;;;;;;;;;;;;;21.96;58.04;102519.59;7258070;19;152876;-55
2022/11/12 10:44:29;;;;;;;;;;;;;;;21.97;57.66;102540.16;7254461;19;154634;-54
2022/11/12 10:47:15;;;;;;;;;;;;;;;21.97;57.76;102541.00;7255592;19;154020;-54
2022/11/12 10:49:42;;;;;;;;;;;;;;;21.98;57.51;102553.09;7256112;19;155223;-54
2022/11/12 10:52:18;;;;;;;;;;;;;;;21.97;57.96;102546.63;7253815;19;153083;-54
2022/11/12 10:54:45;;;;;;;;;;;;;;;21.97;57.57;102548.59;7259416;19;152629;-55
2022/11/12 10:57:20;;;;;;;;;;;;;;;21.97;57.53;102545.78;7256754;19;153316;-54
2022/11/12 11:00:04;;;;;;;;;;;;;;;21.98;57.67;102551.13;7266674;19;153361;-55
2022/11/12 11:02:31;;;;;;;;;;;;;;;21.98;57.65;102537.06;7261191;19;153090;-54
2022/11/12 11:04:58;;;;;;;;;;;;;;;21.98;57.85;102527.78;7260418;19;154123;-54
2022/11/12 11:07:25;;;;;;;;;;;;;;;21.99;57.60;102516.22;7254801;19;151901;-55
2022/11/12 11:09:55;;;;;;;;;;;;;;;21.99;57.75;102516.22;7255900;19;152699;-54
2022/11/12 11:12:24;;;;;;;;;;;;;;;21.98;57.30;102513.69;7253109;19;153678;-54
2022/11/12 11:15:00;;;;;;;;;;;;;;;21.99;57.69;102509.75;7257013;19;153392;-54
2022/11/12 11:17:27;;;;;;;;;;;;;;;22.00;57.31;102508.63;7256907;19;153555;-55
2022/11/12 11:19:54;;;;;;;;;;;;;;;21.99;57.67;102513.41;7267864;19;152940;-54
2022/11/12 11:22:27;;;;;;;;;;;;;;;22.00;57.30;102503.84;7257910;19;152788;-54
2022/11/12 11:25:14;;;;;;;;;;;;;;;22.01;57.71;102497.09;7257039;19;152407;-54
2022/11/12 11:27:49;;;;;;;;;;;;;;;22.01;57.43;102491.47;7256276;19;153290;-55
2022/11/12 11:30:18;;;;;;;;;;;;;;;22.02;57.19;102483.88;7254740;19;152885;-54
2022/11/12 11:32:55;;;;;;;;;;;;;;;22.02;57.59;102483.88;7257683;19;154025;-54
2022/11/12 11:35:31;;;;;;;;;;;;;;;22.02;57.49;102490.34;7256334;19;153930;-54
2022/11/12 11:38:18;;;;;;;;;;;;;;;22.03;57.09;102489.19;7255378;19;152816;-54
2022/11/12 11:40:52;;;;;;;;;;;;;;;22.01;57.06;102485.84;7255174;19;154051;-54
2022/11/12 11:43:30;;;;;;;;;;;;;;;22.01;57.46;102474.56;7262664;19;153867;-54
2022/11/12 11:46:06;;;;;;;;;;;;;;;22.02;57.49;102472.59;7257812;19;154140;-54
2022/11/12 11:48:48;;;;;;;;;;;;;;;22.03;57.18;102471.50;7255903;19;153264;-55
2022/11/12 11:51:25;;;;;;;;;;;;;;;21.97;57.40;102462.19;7238700;19;153000;-54
2022/11/12 11:54:02;;;;;;;;;;;;;;;21.96;57.11;102456.84;7247668;19;152836;-54
2022/11/12 11:56:32;;;;;;;;;;;;;;;21.99;57.69;102457.09;7264566;19;154325;-54
2022/11/12 11:59:00;;;;;;;;;;;;;;;22.01;57.19;102456.84;7266406;19;154005;-55
2022/11/12 12:01:28;;;;;;;;;;;;;;;22.00;57.33;102461.63;7259806;19;153383;-55
2022/11/12 12:03:56;;;;;;;;;;;;;;;22.00;57.20;102453.19;7264629;19;152599;-55
2022/11/12 12:06:25;;;;;;;;;;;;;;;22.01;57.10;102454.88;7271164;19;153988;-54
2022/11/12 12:08:54;;;;;;;;;;;;;;;22.01;57.06;102454.88;7264468;19;152750;-54
2022/11/12 12:11:29;;;;;;;;;;;;;;;21.97;57.36;102448.13;7259511;19;153555;-54
2022/11/12 12:13:59;;;;;;;;;;;;;;;21.96;57.44;102445.56;7257987;19;155484;-54
2022/11/12 12:16:36;;;;;;;;;;;;;;;21.95;57.80;102441.06;7259430;19;152769;-54
2022/11/12 12:19:10;;;;;;;;;;;;;;;21.95;57.64;102449.50;7263998;19;152907;-54
2022/11/12 12:21:40;;;;;;;;;;;;;;;21.96;57.52;102439.94;7262940;19;153678;-54
2022/11/12 12:24:26;;;;;;;;;;;;;;;21.93;57.80;102444.19;7263803;19;152205;-55
2022/11/12 12:26:56;;;;;;;;;;;;;;;21.95;57.85;102441.91;7262806;19;153519;-54
2022/11/12 12:29:28;;;;;;;;;;;;;;;21.94;57.70;102442.22;7268640;19;153331;-53
2022/11/12 12:32:00;;;;;;;;;;;;;;;21.97;57.46;102436.00;7258290;19;154632;-54
2022/11/12 12:34:31;;;;;;;;;;;;;;;21.98;57.68;102430.13;7257843;19;153403;-54
2022/11/12 12:37:02;;;;;;;;;;;;;;;21.98;57.24;102432.09;7262010;19;152885;-54
2022/11/12 12:39:36;;;;;;;;;;;;;;;21.96;57.79;102423.06;7259747;19;153617;-54
2022/11/12 12:42:17;;;;;;;;;;;;;;;21.98;57.71;102432.94;7258694;19;153088;-54
2022/11/12 12:47:28;;;;;;;;;;;;;;;22.04;56.99;102416.84;7264221;19;154015;-54
2022/11/12 12:49:57;;;;;;;;;;;;;;;22.01;57.25;102421.09;7262113;19;154480;-54
2022/11/12 12:52:24;;;;;;;;;;;;;;;22.02;57.28;102413.50;7266825;19;152672;-54
2022/11/12 12:54:55;;;;;;;;;;;;;;;22.03;57.27;102415.19;7253616;19;153457;-54
2022/11/12 12:57:25;;;;;;;;;;;;;;;22.03;57.24;102409.56;7259743;19;154303;-54
2022/11/12 13:00:12;;;;;;;;;;;;;;;22.02;57.58;102416.31;7256637;19;152870;-54
2022/11/12 13:02:41;;;;;;;;;;;;;;;22.03;57.58;102404.75;7261604;19;154326;-54
2022/11/12 13:05:22;;;;;;;;;;;;;;;22.03;57.65;102407.56;7262034;19;152787;-54